Etusivu
METAR-TAF:

METAR-TAF

Lentoasemat :

Door County Cherryland Airport

Sturgeon Bay, Wisconsin, Yhdysvallat

Leveyspiiri: 44-51N, Pituuspiiri: 087-25W, korkeus merenpinnasta: 221 m

Tämänhetkinen sää

Tämä raportti tehtiin 40 minuuttia sitten, kello 20.17 UTC
Tuuli 12 kn pohjoisen/luoteesta
Lämpötila -4°C
Kosteus 74%
Ilmanpaine 1019 hPa
Näkyvyys: 14.5 km
Pilvistä 2800 ft:n korkeudessa
heikkoa lumisadetta

METAR: KSUE 262017Z AUTO 34012KT 9SM -SN OVC028 M04/M08 A3008 RMK AO2 P0000 FZRANO

Aika: 14:57 (20:57 UTC)


TAF: puuttuu

Säähavainnot ja -ennusteet yli 4000 lentoasemalta (METAR- ja TAF-raportit).

Käytössä olevat sääasemat on merkitty karttaan keltaisilla ja punaisilla pisteillä.

Aseta hiiri pisteen päälle nähdäksesi sääaseman nimen.

Klikkaa sitten nähdäksesi säähavainnot ja -ennusteet.

Kartan vaihtaminen: klikkaa mustalla rastilla varustettuja vihreitä pisteitä, niin voit zoomata sisään; viivalla varustettua vihreää pistettä, niin voit zoomata ulos tai vihreitä nuolia, niin pääset viereisille kartoille.


METAR-TAF: